Ferry Bizan — JD3924 — position and weather

sailwx.info

Track history (hours):
 
Tides and Currents Weather Stations Pressure Air Temp Water Temp Dewpoint Dewpoint Depression Visibility Wind Speed Wind Dir Waves Ship Positions

Ferry Bizan

Last reported at 2017-Oct-17 14:04 UTC. Time now 2017-Oct-19 14:32 UTC.
Position N 34°52' E 139°20'.

Length 191 m; draft 6.5 m.

Type: Passenger vessel. MMSI: 431007129.

Date/timePositionNaut miles runAvg speedWind from/ knotsBaromVisibWave heightAir tempDewpointWater temp
2017-Oct-17 14:04N 34°52' E 139°20'317.7
2017-Oct-17 13:53N 34°54' E 139°23'717.9
2017-Oct-17 13:30N 34°58' E 139°30'1019.0
2017-Oct-17 13:00N 35°04' E 139°39'1020.2
2017-Oct-17 12:30N 35°12' E 139°46'612.0
2017-Oct-17 12:00N 35°18' E 139°44'714.1
2017-Oct-17 11:30N 35°25' E 139°43'918.3
2017-Oct-17 11:00N 35°31' E 139°51'6 0.7
2017-Oct-17 02:14N 35°37' E 139°48'1 2.6
2017-Oct-17 02:00N 35°37' E 139°49'5 9.6
2017-Oct-17 01:30N 35°34' E 139°53'0 0.1
2017-Oct-17 00:38N 35°34' E 139°53'0 0.0
2017-Oct-17 00:11N 35°34' E 139°53'0 0.0
2017-Oct-16 22:41N 35°34' E 139°53'0 0.0
2017-Oct-16 22:11N 35°34' E 139°53'0 0.0
2017-Oct-16 21:47N 35°34' E 139°53'0 0.0
2017-Oct-16 21:29N 35°34' E 139°53'0 0.0
2017-Oct-16 19:17N 35°34' E 139°53'0 0.0
2017-Oct-16 18:47N 35°34' E 139°53'0 0.0
2017-Oct-16 18:29N 35°34' E 139°53'0 0.0
2017-Oct-16 17:59N 35°34' E 139°53'0 0.0
2017-Oct-16 17:05N 35°34' E 139°53'0 0.0
2017-Oct-16 16:56N 35°34' E 139°53'0 0.0
2017-Oct-16 16:29N 35°34' E 139°53'0 0.0
2017-Oct-16 13:26N 35°34' E 139°53'0 0.0
2017-Oct-16 12:59N 35°34' E 139°53'0 0.0
2017-Oct-16 12:29N 35°34' E 139°53'0 0.0
2017-Oct-16 11:59N 35°34' E 139°53'0 0.0
2017-Oct-16 10:38N 35°34' E 139°53'0 0.0
2017-Oct-16 10:14N 35°34' E 139°53'0 0.1
2017-Oct-16 09:50N 35°34' E 139°53'0 0.1
2017-Oct-16 09:23N 35°34' E 139°53'0 0.0
2017-Oct-16 08:59N 35°34' E 139°53'0 0.0
2017-Oct-16 06:29N 35°34' E 139°53'0 0.0
2017-Oct-16 05:44N 35°34' E 139°53'0 0.0
2017-Oct-16 01:41N 35°34' E 139°53'0 0.0
2017-Oct-16 01:11N 35°34' E 139°53'0 0.0
2017-Oct-16 00:59N 35°34' E 139°53'0 0.0
2017-Oct-15 23:50N 35°34' E 139°53'0 0.0
2017-Oct-15 21:23N 35°34' E 139°53'0 0.0
2017-Oct-15 20:53N 35°34' E 139°53'0 0.0
2017-Oct-15 20:11N 35°34' E 139°53'0 0.2
2017-Oct-15 19:59N 35°34' E 139°53'0 0.0
2017-Oct-15 19:29N 35°34' E 139°53'0 0.0
2017-Oct-15 18:08N 35°34' E 139°53'0 0.0
2017-Oct-15 17:05N 35°34' E 139°53'0 0.0
2017-Oct-15 16:02N 35°34' E 139°53'0 0.0
2017-Oct-15 15:59N 35°34' E 139°53'0 0.0
2017-Oct-15 15:23N 35°34' E 139°53'0 0.0
2017-Oct-15 14:59N 35°34' E 139°53'0 0.0
2017-Oct-15 11:32N 35°34' E 139°53'0 0.0
2017-Oct-15 11:26N 35°34' E 139°53'0 0.1
2017-Oct-15 10:59N 35°34' E 139°53'0 0.0
2017-Oct-15 07:53N 35°34' E 139°53'0 0.0
2017-Oct-15 05:02N 35°34' E 139°53'0 0.0
2017-Oct-15 04:53N 35°34' E 139°53'0 0.1
2017-Oct-15 04:29N 35°34' E 139°53'0 0.1
2017-Oct-15 03:41N 35°34' E 139°53'0 0.0
2017-Oct-15 03:29N 35°34' E 139°53'0 0.0
2017-Oct-15 01:39N 35°34' E 139°53'0 1.4
2017-Oct-15 01:30N 35°34' E 139°53'510.2
2017-Oct-15 01:00N 35°37' E 139°48'0 0.0
2017-Oct-14 22:00N 35°37' E 139°48'2 4.5
2017-Oct-14 21:27N 35°36' E 139°50'716.1
2017-Oct-14 21:01N 35°29' E 139°51'714.0
2017-Oct-14 20:30N 35°23' E 139°46'611.1
2017-Oct-14 20:00N 35°18' E 139°45'611.3
2017-Oct-14 19:31N 35°12' E 139°47'816.6
2017-Oct-14 19:01N 35°05' E 139°42'918.5
2017-Oct-14 18:31N 34°59' E 139°33'  
2017-Oct-10 07:28N 35°35' E 139°53'0 0.0
2017-Oct-10 07:00N 35°35' E 139°53'0 0.0
2017-Oct-10 06:30N 35°35' E 139°53'0 0.0
2017-Oct-10 06:00N 35°35' E 139°53'0 0.0
2017-Oct-10 05:30N 35°35' E 139°53'0 0.0
2017-Oct-10 05:00N 35°35' E 139°53'0 0.0
2017-Oct-10 04:24N 35°35' E 139°53'0 0.0
2017-Oct-10 04:00N 35°35' E 139°53'0 0.0
2017-Oct-10 03:30N 35°35' E 139°53'0 0.0
2017-Oct-10 03:00N 35°35' E 139°53'0 0.0
2017-Oct-10 02:30N 35°35' E 139°53'0 0.0
2017-Oct-10 02:00N 35°35' E 139°53'0 0.1
2017-Oct-10 01:30N 35°35' E 139°53'4 9.0
2017-Oct-10 01:00N 35°37' E 139°48'9 1.8
2017-Oct-09 19:42N 35°28' E 139°50'419.2
2017-Oct-09 19:30N 35°25' E 139°47'612.9
2017-Oct-09 19:00N 35°19' E 139°44'612.3
2017-Oct-09 18:31N 35°14' E 139°47'917.6
2017-Oct-09 18:01N 35°05' E 139°44'1019.0
2017-Oct-09 17:30N 34°59' E 139°36'1019.4
2017-Oct-09 17:00N 34°53' E 139°26'  
Track history (hours):
 
Tides and Currents Weather Stations Pressure Air Temp Water Temp Dewpoint Dewpoint Depression Visibility Wind Speed Wind Dir Waves Ship Positions

Ferry Bizan

Last reported at 2017-Oct-17 14:04 UTC. Time now 2017-Oct-19 14:32 UTC.
Position N 34°52' E 139°20'.

Length 191 m; draft 6.5 m.

Type: Passenger vessel. MMSI: 431007129.

Date/timePositionNaut miles runAvg speedWind from/ knotsBaromVisibWave heightAir tempDewpointWater temp
2017-Oct-17 14:04N 34°52' E 139°20'317.7
2017-Oct-17 13:53N 34°54' E 139°23'717.9
2017-Oct-17 13:30N 34°58' E 139°30'1019.0
2017-Oct-17 13:00N 35°04' E 139°39'1020.2
2017-Oct-17 12:30N 35°12' E 139°46'612.0
2017-Oct-17 12:00N 35°18' E 139°44'714.1
2017-Oct-17 11:30N 35°25' E 139°43'918.3
2017-Oct-17 11:00N 35°31' E 139°51'6 0.7
2017-Oct-17 02:14N 35°37' E 139°48'1 2.6
2017-Oct-17 02:00N 35°37' E 139°49'5 9.6
2017-Oct-17 01:30N 35°34' E 139°53'0 0.1
2017-Oct-17 00:38N 35°34' E 139°53'0 0.0
2017-Oct-17 00:11N 35°34' E 139°53'0 0.0
2017-Oct-16 22:41N 35°34' E 139°53'0 0.0
2017-Oct-16 22:11N 35°34' E 139°53'0 0.0
2017-Oct-16 21:47N 35°34' E 139°53'0 0.0
2017-Oct-16 21:29N 35°34' E 139°53'0 0.0
2017-Oct-16 19:17N 35°34' E 139°53'0 0.0
2017-Oct-16 18:47N 35°34' E 139°53'0 0.0
2017-Oct-16 18:29N 35°34' E 139°53'0 0.0
2017-Oct-16 17:59N 35°34' E 139°53'0 0.0
2017-Oct-16 17:05N 35°34' E 139°53'0 0.0
2017-Oct-16 16:56N 35°34' E 139°53'0 0.0
2017-Oct-16 16:29N 35°34' E 139°53'0 0.0
2017-Oct-16 13:26N 35°34' E 139°53'0 0.0
2017-Oct-16 12:59N 35°34' E 139°53'0 0.0
2017-Oct-16 12:29N 35°34' E 139°53'0 0.0
2017-Oct-16 11:59N 35°34' E 139°53'0 0.0
2017-Oct-16 10:38N 35°34' E 139°53'0 0.0
2017-Oct-16 10:14N 35°34' E 139°53'0 0.1
2017-Oct-16 09:50N 35°34' E 139°53'0 0.1
2017-Oct-16 09:23N 35°34' E 139°53'0 0.0
2017-Oct-16 08:59N 35°34' E 139°53'0 0.0
2017-Oct-16 06:29N 35°34' E 139°53'0 0.0
2017-Oct-16 05:44N 35°34' E 139°53'0 0.0
2017-Oct-16 01:41N 35°34' E 139°53'0 0.0
2017-Oct-16 01:11N 35°34' E 139°53'0 0.0
2017-Oct-16 00:59N 35°34' E 139°53'0 0.0
2017-Oct-15 23:50N 35°34' E 139°53'0 0.0
2017-Oct-15 21:23N 35°34' E 139°53'0 0.0
2017-Oct-15 20:53N 35°34' E 139°53'0 0.0
2017-Oct-15 20:11N 35°34' E 139°53'0 0.2
2017-Oct-15 19:59N 35°34' E 139°53'0 0.0
2017-Oct-15 19:29N 35°34' E 139°53'0 0.0
2017-Oct-15 18:08N 35°34' E 139°53'0 0.0
2017-Oct-15 17:05N 35°34' E 139°53'0 0.0
2017-Oct-15 16:02N 35°34' E 139°53'0 0.0
2017-Oct-15 15:59N 35°34' E 139°53'0 0.0
2017-Oct-15 15:23N 35°34' E 139°53'0 0.0
2017-Oct-15 14:59N 35°34' E 139°53'0 0.0
2017-Oct-15 11:32N 35°34' E 139°53'0 0.0
2017-Oct-15 11:26N 35°34' E 139°53'0 0.1
2017-Oct-15 10:59N 35°34' E 139°53'0 0.0
2017-Oct-15 07:53N 35°34' E 139°53'0 0.0
2017-Oct-15 05:02N 35°34' E 139°53'0 0.0
2017-Oct-15 04:53N 35°34' E 139°53'0 0.1
2017-Oct-15 04:29N 35°34' E 139°53'0 0.1
2017-Oct-15 03:41N 35°34' E 139°53'0 0.0
2017-Oct-15 03:29N 35°34' E 139°53'0 0.0
2017-Oct-15 01:39N 35°34' E 139°53'0 1.4
2017-Oct-15 01:30N 35°34' E 139°53'510.2
2017-Oct-15 01:00N 35°37' E 139°48'0 0.0
2017-Oct-14 22:00N 35°37' E 139°48'2 4.5
2017-Oct-14 21:27N 35°36' E 139°50'716.1
2017-Oct-14 21:01N 35°29' E 139°51'714.0
2017-Oct-14 20:30N 35°23' E 139°46'611.1
2017-Oct-14 20:00N 35°18' E 139°45'611.3
2017-Oct-14 19:31N 35°12' E 139°47'816.6
2017-Oct-14 19:01N 35°05' E 139°42'918.5
2017-Oct-14 18:31N 34°59' E 139°33'  
2017-Oct-10 07:28N 35°35' E 139°53'0 0.0
2017-Oct-10 07:00N 35°35' E 139°53'0 0.0
2017-Oct-10 06:30N 35°35' E 139°53'0 0.0
2017-Oct-10 06:00N 35°35' E 139°53'0 0.0
2017-Oct-10 05:30N 35°35' E 139°53'0 0.0
2017-Oct-10 05:00N 35°35' E 139°53'0 0.0
2017-Oct-10 04:24N 35°35' E 139°53'0 0.0
2017-Oct-10 04:00N 35°35' E 139°53'0 0.0
2017-Oct-10 03:30N 35°35' E 139°53'0 0.0
2017-Oct-10 03:00N 35°35' E 139°53'0 0.0
2017-Oct-10 02:30N 35°35' E 139°53'0 0.0
2017-Oct-10 02:00N 35°35' E 139°53'0 0.1
2017-Oct-10 01:30N 35°35' E 139°53'4 9.0
2017-Oct-10 01:00N 35°37' E 139°48'9 1.8
2017-Oct-09 19:42N 35°28' E 139°50'419.2
2017-Oct-09 19:30N 35°25' E 139°47'612.9
2017-Oct-09 19:00N 35°19' E 139°44'612.3
2017-Oct-09 18:31N 35°14' E 139°47'917.6
2017-Oct-09 18:01N 35°05' E 139°44'1019.0
2017-Oct-09 17:30N 34°59' E 139°36'1019.4
2017-Oct-09 17:00N 34°53' E 139°26'  

Dump ship's entire track history